Shubra el-Kheima, Egypt

55.9°F / 13.3°C
Clear
Humidity: 74%
Dew Point: 48°F / 9°C
Wind: WNW at 0 mph / 0.0 km/h
Wind Gust: 0.0 mph / 0.0 km/h
Pressure: 30.18 in / 1022 hPa (Steady)
Visibility: 3.7 miles / 6.0 kilometers
Clouds:
Yesterday's Maximum: 70.9°F / 21.6°C
Yesterday's Minimum: -14.3°F / -25.7°C
Sunrise:6:30 AM EET
Sunset:5:47 PM EET
Moon Rise:6:50 PM EET
Moon Set:7:10 AM EET
Moon Phase Full Moon
NOAA Weather Radio
No local feed.
METAR HECA 200230Z 35003KT 6000 NSC 13/08 Q1022 NOSIG
As of: 4:48 AM EET on February 20, 2019
Observed at: Garden City, Four Seasons Nile Hotel, Tahrir Square, Cairo, Egypt

View Station's History

No Yes

Local Satellite

Current Satellite Forecast
Region Default Local
No Yes

View Full Screen WunderMap

Forecast

Current Satellite Forecast
Tuesday
. High: 70° F. / 21° C.

. High: 57° F. / 13° C.

Features

Weather Apps

WunderRadio

Weather Underground Apps
Check out our wide variety of mobile and setup applications.

Weather Underground Applications

Top of Page

© Copyright 2019
The Weather Company, LLC